createdAt,value
2022-11-26T00:01:31.724Z,-0.66
2022-11-26T00:04:03.233Z,-1.23
2022-11-26T00:06:36.310Z,-0.82
2022-11-26T00:09:08.615Z,-0.79
2022-11-26T00:11:38.727Z,-1.71
2022-11-26T00:14:13.589Z,-0.96
2022-11-26T00:16:45.309Z,-1.45
2022-11-26T00:19:15.838Z,-0.68
2022-11-26T00:21:44.458Z,-0.63
2022-11-26T00:24:27.710Z,-0.88
2022-11-26T00:27:00.899Z,-0.77
2022-11-26T00:29:29.027Z,-1.53
2022-11-26T00:31:57.934Z,-0.64
2022-11-26T00:34:26.231Z,-1.53
2022-11-26T00:36:54.807Z,-1.16
2022-11-26T00:39:26.523Z,-1.03
2022-11-26T00:41:55.571Z,-1.27
2022-11-26T00:44:29.998Z,-1.19
2022-11-26T00:46:58.537Z,-0.68
2022-11-26T00:49:28.782Z,-0.74
2022-11-26T00:51:57.751Z,-0.75
2022-11-26T00:54:25.958Z,-0.73
2022-11-26T00:56:55.059Z,-0.62
2022-11-26T00:59:24.854Z,-0.66
2022-11-26T01:01:53.877Z,-1.26
2022-11-26T01:04:22.287Z,-0.67
2022-11-26T01:06:51.282Z,-1.23
2022-11-26T01:09:21.787Z,-0.75
2022-11-26T01:11:54.080Z,-1.17
2022-11-26T01:14:28.779Z,-0.52
2022-11-26T01:16:58.359Z,-0.52
2022-11-26T01:19:26.826Z,-0.74
2022-11-26T01:21:55.507Z,-0.82
2022-11-26T01:24:23.838Z,-1.34
2022-11-26T01:26:52.716Z,-1.11
2022-11-26T01:29:21.741Z,-0.52
2022-11-26T01:31:51.754Z,-0.66
2022-11-26T01:34:23.738Z,-1.27
2022-11-26T01:36:52.219Z,-1.25
2022-11-26T01:39:22.689Z,-0.79
2022-11-26T01:42:03.800Z,-1.22
2022-11-26T01:44:33.793Z,-1.54
2022-11-26T01:47:19.380Z,-0.75
2022-11-26T01:50:20.434Z,-0.67
2022-11-26T01:52:49.136Z,-1.15
2022-11-26T01:55:19.235Z,-1.59
2022-11-26T01:57:48.134Z,-1.32
2022-11-26T02:00:17.603Z,-0.98
2022-11-26T02:02:48.051Z,-0.73
2022-11-26T02:05:22.133Z,-0.44
2022-11-26T02:07:54.147Z,-0.44
2022-11-26T02:10:22.447Z,-0.64
2022-11-26T02:12:52.409Z,-0.48
2022-11-26T02:15:28.048Z,-1.05
2022-11-26T02:18:05.072Z,-0.44
2022-11-26T02:20:46.141Z,-0.67
2022-11-26T02:23:38.101Z,-0.81
2022-11-26T02:26:44.789Z,-0.96
2022-11-26T02:29:23.283Z,-0.95
2022-11-26T02:32:01.008Z,-0.50
2022-11-26T02:34:40.911Z,-0.20
2022-11-26T02:37:11.901Z,-0.21
2022-11-26T02:39:40.658Z,-0.90
2022-11-26T02:42:25.115Z,-1.01
2022-11-26T02:44:56.624Z,-0.86
2022-11-26T02:47:29.160Z,-0.38
2022-11-26T02:50:01.879Z,-0.31
2022-11-26T02:52:34.196Z,-0.54
2022-11-26T02:55:05.056Z,-0.74
2022-11-26T02:57:35.663Z,-0.95
2022-11-26T03:00:05.885Z,-0.89
2022-11-26T03:02:41.138Z,-0.70
2022-11-26T03:05:11.788Z,-0.92
2022-11-26T03:07:41.484Z,-1.30
2022-11-26T03:10:10.841Z,-0.94
2022-11-26T03:12:39.065Z,-0.83
2022-11-26T03:15:08.766Z,-0.45
2022-11-26T03:17:38.213Z,-0.16
2022-11-26T03:20:08.397Z,-1.08
2022-11-26T03:22:36.683Z,-0.39
2022-11-26T03:25:06.339Z,-0.20
2022-11-26T03:27:34.866Z,-0.19
2022-11-26T03:33:05.475Z,-0.38
2022-11-26T03:35:33.898Z,-0.20
2022-11-26T03:38:02.395Z,-0.41
2022-11-26T03:40:31.179Z,-1.11
2022-11-26T03:42:59.507Z,-0.32
2022-11-26T03:45:28.276Z,-0.49
2022-11-26T03:47:56.719Z,-0.74
2022-11-26T03:50:26.863Z,-1.69
2022-11-26T03:52:55.238Z,-0.34
2022-11-26T03:55:24.051Z,-0.76
2022-11-26T03:57:52.483Z,-0.95
2022-11-26T04:00:22.516Z,-0.61
2022-11-26T04:02:50.878Z,-0.28
2022-11-26T04:05:19.715Z,-1.08
2022-11-26T04:07:50.134Z,-0.09
2022-11-26T04:10:19.042Z,-0.10
2022-11-26T04:12:48.750Z,-0.73
2022-11-26T04:15:20.399Z,-0.22
2022-11-26T04:17:48.684Z,-0.94
2022-11-26T04:20:17.470Z,-1.08
2022-11-26T04:22:45.856Z,-0.92
2022-11-26T04:25:15.818Z,-1.54
2022-11-26T04:27:44.118Z,0.06
2022-11-26T04:30:13.995Z,-0.57
2022-11-26T04:32:42.305Z,0.11
2022-11-26T04:35:11.613Z,-1.02
2022-11-26T04:37:40.127Z,-1.04
2022-11-26T04:40:11.283Z,-0.08
2022-11-26T04:42:41.051Z,-0.63
2022-11-26T04:45:11.053Z,-0.01
2022-11-26T04:47:42.906Z,-0.54
2022-11-26T04:50:12.673Z,0.22
2022-11-26T04:52:40.818Z,0.03
2022-11-26T04:55:13.525Z,-0.36
2022-11-26T04:57:43.453Z,0.31
2022-11-26T05:00:15.802Z,-0.44
2022-11-26T05:02:44.441Z,-0.59
2022-11-26T05:05:13.687Z,-0.92
2022-11-26T05:07:44.796Z,-0.46
2022-11-26T05:10:14.360Z,0.02
2022-11-26T05:12:44.216Z,-0.09
2022-11-26T05:15:12.925Z,-0.59
2022-11-26T05:17:41.300Z,-0.54
2022-11-26T05:20:11.048Z,-0.21
2022-11-26T05:22:39.075Z,0.15
2022-11-26T05:25:08.329Z,-0.06
2022-11-26T05:27:36.952Z,0.13
2022-11-26T05:30:08.718Z,-0.40
2022-11-26T05:32:37.296Z,0.12
2022-11-26T05:35:06.901Z,0.18
2022-11-26T05:37:35.199Z,-0.93
2022-11-26T05:40:04.984Z,-0.37
2022-11-26T05:42:33.594Z,-0.44
2022-11-26T05:45:02.170Z,-0.68
2022-11-26T05:47:34.053Z,-0.53
2022-11-26T05:50:02.809Z,-0.66
2022-11-26T05:52:31.041Z,-0.31
2022-11-26T05:54:59.796Z,0.09
2022-11-26T05:57:28.041Z,-0.59
2022-11-26T05:59:56.817Z,-0.57
2022-11-26T06:02:25.271Z,0.13
2022-11-26T06:04:55.391Z,0.26
2022-11-26T06:07:24.014Z,-0.22
2022-11-26T06:09:52.833Z,-0.18
2022-11-26T06:12:21.058Z,0.46
2022-11-26T06:14:49.669Z,-0.24
2022-11-26T06:17:18.280Z,0.23
2022-11-26T06:19:49.900Z,-0.03
2022-11-26T06:22:19.903Z,0.06
2022-11-26T06:24:48.529Z,0.47
2022-11-26T06:27:16.802Z,0.29
2022-11-26T06:29:45.325Z,0.55
2022-11-26T06:32:13.642Z,0.23
2022-11-26T06:34:53.813Z,0.30
2022-11-26T06:37:23.909Z,0.39
2022-11-26T06:39:52.696Z,-0.09
2022-11-26T06:42:21.914Z,-0.21
2022-11-26T06:44:50.672Z,0.19
2022-11-26T06:47:19.009Z,-0.17
2022-11-26T06:49:47.627Z,0.54
2022-11-26T06:52:16.018Z,0.35
2022-11-26T06:54:46.077Z,-0.35
2022-11-26T06:57:14.363Z,-0.37
2022-11-26T06:59:43.114Z,-0.32
2022-11-26T07:02:12.258Z,-0.75
2022-11-26T07:04:41.151Z,0.67
2022-11-26T07:07:09.733Z,-0.07
2022-11-26T07:09:41.377Z,0.23
2022-11-26T07:12:10.985Z,0.43
2022-11-26T07:14:39.673Z,0.76
2022-11-26T07:17:08.180Z,-0.14
2022-11-26T07:19:36.817Z,0.12
2022-11-26T07:22:07.574Z,0.23
2022-11-26T07:24:36.551Z,0.16
2022-11-26T07:27:05.114Z,0.28
2022-11-26T07:29:38.078Z,0.75
2022-11-26T07:32:06.529Z,0.76
2022-11-26T07:34:35.752Z,0.52
2022-11-26T07:37:04.524Z,0.05
2022-11-26T07:43:07.282Z,0.69
2022-11-26T07:45:38.485Z,0.30
2022-11-26T07:48:07.191Z,0.51
2022-11-26T07:50:35.862Z,0.73
2022-11-26T07:53:04.100Z,-0.10
2022-11-26T07:55:32.620Z,-0.02
2022-11-26T07:58:01.201Z,-0.25
2022-11-26T08:00:29.956Z,0.99
2022-11-26T08:03:00.780Z,0.30
2022-11-26T08:05:29.930Z,1.01
2022-11-26T08:07:58.525Z,0.22
2022-11-26T08:10:27.380Z,1.06
2022-11-26T08:12:55.931Z,0.45
2022-11-26T08:15:24.599Z,1.06
2022-11-26T08:17:56.325Z,0.47
2022-11-26T08:20:29.035Z,0.47
2022-11-26T08:22:58.840Z,1.28
2022-11-26T08:25:27.586Z,0.53
2022-11-26T08:27:55.761Z,0.70
2022-11-26T08:30:27.460Z,0.68
2022-11-26T08:32:56.644Z,1.28
2022-11-26T08:35:51.146Z,1.45
2022-11-26T08:39:23.828Z,0.05
2022-11-26T08:41:54.276Z,1.03
2022-11-26T08:44:22.902Z,1.57
2022-11-26T08:46:51.512Z,1.75
2022-11-26T08:49:19.819Z,1.78
2022-11-26T08:51:49.876Z,1.63
2022-11-26T08:54:18.261Z,1.82
2022-11-26T08:56:46.985Z,1.76
2022-11-26T08:59:16.351Z,1.40
2022-11-26T09:01:46.881Z,1.98
2022-11-26T09:04:15.251Z,1.77
2022-11-26T09:06:43.767Z,1.84
2022-11-26T09:09:17.783Z,1.86
2022-11-26T09:11:49.691Z,2.05
2022-11-26T09:14:20.549Z,2.07
2022-11-26T09:16:49.447Z,1.65
2022-11-26T09:19:19.059Z,1.90
2022-11-26T09:21:53.040Z,1.71
2022-11-26T09:24:24.809Z,2.00
2022-11-26T09:26:53.851Z,2.11
2022-11-26T09:29:25.427Z,2.04
2022-11-26T09:32:21.844Z,2.07
2022-11-26T09:34:43.106Z,2.40
2022-11-26T09:37:11.653Z,2.47
2022-11-26T09:39:41.400Z,2.45
2022-11-26T09:42:15.904Z,2.41
2022-11-26T09:45:01.755Z,2.35
2022-11-26T09:47:37.040Z,2.36
2022-11-26T09:50:17.804Z,2.03
2022-11-26T09:52:52.540Z,2.26
2022-11-26T09:55:25.938Z,1.77
2022-11-26T09:58:02.529Z,2.05
2022-11-26T10:00:33.920Z,1.87
2022-11-26T10:03:02.510Z,2.58
2022-11-26T10:05:46.975Z,2.16
2022-11-26T10:08:29.444Z,2.49
2022-11-26T10:11:06.752Z,2.32
2022-11-26T10:13:46.441Z,2.43
2022-11-26T10:16:25.021Z,2.10
2022-11-26T10:19:04.573Z,1.88
2022-11-26T10:21:58.129Z,1.40
2022-11-26T10:24:31.235Z,1.96
2022-11-26T10:27:06.583Z,2.72
2022-11-26T10:29:40.808Z,2.31
2022-11-26T10:32:15.970Z,3.15
2022-11-26T10:34:51.212Z,3.07
2022-11-26T10:37:20.514Z,2.54
2022-11-26T10:39:52.915Z,3.00
2022-11-26T10:42:26.931Z,2.30
2022-11-26T10:44:55.899Z,2.98
2022-11-26T10:47:38.095Z,2.37
2022-11-26T10:50:46.494Z,2.50
2022-11-26T10:53:22.129Z,2.88
2022-11-26T10:55:53.255Z,2.44
2022-11-26T10:58:26.549Z,2.58
2022-11-26T11:01:01.257Z,2.97
2022-11-26T11:04:06.054Z,3.04
2022-11-26T11:06:35.941Z,2.40
2022-11-26T11:09:24.530Z,2.89
2022-11-26T11:13:19.506Z,3.46
2022-11-26T11:16:04.158Z,3.49
2022-11-26T11:18:35.356Z,2.96
2022-11-26T11:21:08.028Z,2.85
2022-11-26T11:24:07.099Z,3.02
2022-11-26T11:26:28.883Z,3.27
2022-11-26T11:28:58.253Z,3.27
2022-11-26T11:31:28.969Z,3.16
2022-11-26T11:34:14.266Z,3.11
2022-11-26T11:36:42.666Z,3.30
2022-11-26T11:39:29.489Z,3.34
2022-11-26T11:42:00.770Z,3.29
2022-11-26T11:44:38.146Z,3.45
2022-11-26T11:47:34.586Z,3.52
2022-11-26T11:50:21.156Z,3.25
2022-11-26T11:53:03.259Z,2.87
2022-11-26T11:55:49.095Z,3.36
2022-11-26T11:58:38.801Z,3.11
2022-11-26T12:01:16.444Z,3.37
2022-11-26T12:04:09.176Z,2.73
2022-11-26T12:06:51.335Z,3.08
2022-11-26T12:09:30.585Z,3.13
2022-11-26T12:12:02.725Z,3.39
2022-11-26T12:14:37.315Z,3.27
2022-11-26T12:17:12.200Z,3.26
2022-11-26T12:19:48.650Z,3.23
2022-11-26T12:22:23.427Z,2.92
2022-11-26T12:24:57.533Z,2.88
2022-11-26T12:27:34.317Z,3.43
2022-11-26T12:30:10.864Z,3.28
2022-11-26T12:32:47.021Z,3.52
2022-11-26T12:35:26.992Z,3.37
2022-11-26T12:38:00.388Z,3.01
2022-11-26T12:40:35.698Z,2.90
2022-11-26T12:43:13.420Z,3.03
2022-11-26T12:45:51.633Z,2.65
2022-11-26T12:48:30.012Z,3.11
2022-11-26T12:51:04.599Z,2.91
2022-11-26T12:53:42.228Z,3.40
2022-11-26T12:56:17.581Z,3.07
2022-11-26T12:58:54.699Z,3.15
2022-11-26T13:01:24.780Z,3.41
2022-11-26T13:04:14.359Z,3.44
2022-11-26T13:07:05.064Z,3.31
2022-11-26T13:09:56.684Z,3.30
2022-11-26T13:12:37.049Z,3.28
2022-11-26T13:15:16.142Z,3.24
2022-11-26T13:17:48.859Z,3.39
2022-11-26T13:20:31.342Z,3.10
2022-11-26T13:23:16.498Z,3.33
2022-11-26T13:26:10.535Z,3.47
2022-11-26T13:28:56.897Z,3.40
2022-11-26T13:31:42.368Z,3.49
2022-11-26T13:34:37.615Z,3.36
2022-11-26T13:37:45.820Z,3.36
2022-11-26T13:40:46.345Z,3.36
2022-11-26T13:43:53.663Z,3.17
2022-11-26T13:46:23.975Z,3.26
2022-11-26T13:49:00.926Z,3.09
2022-11-26T13:51:35.982Z,3.16
2022-11-26T13:54:14.322Z,3.11
2022-11-26T13:56:44.455Z,2.99
2022-11-26T13:59:22.740Z,3.12
2022-11-26T14:01:55.152Z,3.01
2022-11-26T14:04:54.884Z,3.13
2022-11-26T14:07:23.044Z,3.12
2022-11-26T14:09:55.091Z,2.36
2022-11-26T14:12:24.838Z,2.92
2022-11-26T14:14:54.644Z,3.01
2022-11-26T14:17:27.204Z,3.00
2022-11-26T14:20:06.833Z,2.99
2022-11-26T14:22:36.773Z,2.95
2022-11-26T14:25:08.465Z,2.70
2022-11-26T14:27:40.791Z,2.86
2022-11-26T14:30:25.338Z,2.74
2022-11-26T14:33:12.020Z,2.77
2022-11-26T14:35:42.255Z,2.82
2022-11-26T14:38:28.354Z,2.78
2022-11-26T14:40:58.138Z,2.78
2022-11-26T14:43:27.370Z,2.79
2022-11-26T14:46:13.701Z,2.71
2022-11-26T14:48:46.583Z,2.73
2022-11-26T14:51:22.005Z,2.71
2022-11-26T14:53:51.952Z,2.49
2022-11-26T14:56:23.710Z,2.66
2022-11-26T14:58:57.716Z,2.67
2022-11-26T15:01:30.155Z,2.45
2022-11-26T15:04:01.009Z,2.38
2022-11-26T15:06:43.432Z,2.60
2022-11-26T15:09:15.421Z,2.48
2022-11-26T15:12:05.859Z,2.29
2022-11-26T15:14:42.761Z,2.54
2022-11-26T15:17:17.361Z,2.53
2022-11-26T15:19:46.701Z,2.50
2022-11-26T15:22:23.714Z,2.47
2022-11-26T15:24:52.840Z,2.30
2022-11-26T15:27:31.575Z,2.39
2022-11-26T15:29:59.779Z,1.85
2022-11-26T15:32:32.031Z,2.39
2022-11-26T15:35:03.270Z,2.17
2022-11-26T15:37:35.420Z,2.19
2022-11-26T15:40:20.166Z,2.33
2022-11-26T15:42:50.330Z,2.36
2022-11-26T15:45:20.908Z,2.08
2022-11-26T15:47:54.301Z,2.36
2022-11-26T15:50:29.121Z,2.08
2022-11-26T15:53:01.931Z,2.26
2022-11-26T15:55:33.312Z,2.14
2022-11-26T15:58:07.442Z,2.08
2022-11-26T16:00:39.519Z,2.24
2022-11-26T16:03:37.659Z,2.28
2022-11-26T16:06:08.551Z,2.28
2022-11-26T16:08:38.988Z,1.56
2022-11-26T16:11:23.699Z,2.21
2022-11-26T16:13:52.260Z,2.06
2022-11-26T16:16:22.990Z,1.86
2022-11-26T16:18:55.907Z,1.98
2022-11-26T16:21:27.741Z,2.17
2022-11-26T16:24:00.484Z,2.05
2022-11-26T16:26:29.729Z,2.05
2022-11-26T16:28:58.826Z,1.97
2022-11-26T16:31:27.120Z,1.78
2022-11-26T16:33:56.956Z,1.81
2022-11-26T16:36:27.476Z,1.71
2022-11-26T16:38:57.009Z,1.63
2022-11-26T16:41:25.179Z,1.53
2022-11-26T16:43:54.326Z,1.57
2022-11-26T16:46:26.090Z,0.99
2022-11-26T16:48:56.781Z,1.45
2022-11-26T16:51:25.101Z,0.86
2022-11-26T16:53:53.795Z,1.29
2022-11-26T16:56:25.742Z,0.79
2022-11-26T16:58:55.209Z,1.21
2022-11-26T17:01:23.446Z,1.14
2022-11-26T17:03:52.212Z,0.22
2022-11-26T17:06:25.468Z,1.09
2022-11-26T17:08:56.207Z,1.06
2022-11-26T17:11:25.334Z,1.04
2022-11-26T17:13:53.978Z,1.17
2022-11-26T17:16:24.194Z,0.91
2022-11-26T17:18:53.040Z,1.27
2022-11-26T17:21:22.655Z,1.34
2022-11-26T17:23:51.373Z,1.32
2022-11-26T17:26:21.763Z,1.44
2022-11-26T17:28:52.300Z,0.94
2022-11-26T17:31:20.743Z,1.26
2022-11-26T17:33:50.665Z,1.43
2022-11-26T17:36:21.543Z,1.45
2022-11-26T17:38:52.711Z,1.55
2022-11-26T17:41:20.915Z,1.27
2022-11-26T17:43:49.642Z,1.50
2022-11-26T17:46:20.677Z,1.48
2022-11-26T17:48:53.236Z,1.66
2022-11-26T17:51:25.305Z,1.51
2022-11-26T17:53:57.880Z,1.55
2022-11-26T17:56:27.028Z,1.73
2022-11-26T17:58:55.648Z,1.76
2022-11-26T18:01:24.210Z,1.82
2022-11-26T18:03:53.535Z,1.50
2022-11-26T18:06:33.472Z,1.75
2022-11-26T18:09:03.442Z,1.78
2022-11-26T18:11:45.021Z,1.75
2022-11-26T18:14:13.679Z,1.59
2022-11-26T18:16:42.502Z,1.81
2022-11-26T18:19:13.045Z,1.72
2022-11-26T18:21:41.501Z,1.69
2022-11-26T18:24:13.061Z,1.16
2022-11-26T18:26:41.980Z,1.67
2022-11-26T18:29:11.198Z,1.58
2022-11-26T18:31:40.099Z,1.81
2022-11-26T18:34:09.301Z,1.68
2022-11-26T18:36:37.481Z,1.56
2022-11-26T18:39:06.635Z,1.74
2022-11-26T18:41:36.295Z,1.60
2022-11-26T18:44:05.423Z,1.78
2022-11-26T18:46:33.846Z,1.78
2022-11-26T18:49:05.441Z,1.51
2022-11-26T18:51:33.779Z,1.73
2022-11-26T18:54:03.050Z,1.63
2022-11-26T18:56:31.479Z,1.71
2022-11-26T18:59:01.723Z,1.52
2022-11-26T19:01:32.154Z,1.53
2022-11-26T19:04:00.927Z,1.61
2022-11-26T19:06:31.598Z,1.66
2022-11-26T19:09:02.117Z,1.35
2022-11-26T19:11:30.464Z,1.41
2022-11-26T19:14:00.441Z,1.23
2022-11-26T19:16:31.901Z,1.19
2022-11-26T19:19:02.824Z,0.83
2022-11-26T19:21:32.947Z,1.16
2022-11-26T19:24:04.914Z,1.71
2022-11-26T19:26:33.281Z,1.57
2022-11-26T19:29:02.712Z,1.50
2022-11-26T19:31:36.055Z,1.60
2022-11-26T19:34:07.627Z,1.29
2022-11-26T19:36:38.106Z,1.69
2022-11-26T19:39:09.976Z,1.11
2022-11-26T19:41:38.379Z,1.52
2022-11-26T19:44:07.403Z,1.36
2022-11-26T19:46:41.552Z,1.38
2022-11-26T19:49:13.306Z,1.34
2022-11-26T19:51:41.958Z,1.30
2022-11-26T19:54:11.770Z,1.26
2022-11-26T19:56:43.565Z,0.93
2022-11-26T19:59:20.691Z,-0.42
2022-11-26T20:01:53.789Z,0.99
2022-11-26T20:04:27.604Z,0.23
2022-11-26T20:06:56.348Z,0.39
2022-11-26T20:09:25.921Z,0.89
2022-11-26T20:11:54.608Z,0.13
2022-11-26T20:14:25.466Z,0.94
2022-11-26T20:17:00.551Z,1.01
2022-11-26T20:19:29.836Z,0.95
2022-11-26T20:21:57.996Z,1.01
2022-11-26T20:24:27.400Z,0.84
2022-11-26T20:26:57.724Z,1.06
2022-11-26T20:29:28.225Z,1.09
2022-11-26T20:31:58.051Z,1.00
2022-11-26T20:34:27.976Z,0.95
2022-11-26T20:36:56.136Z,1.06
2022-11-26T20:39:25.588Z,1.22
2022-11-26T20:41:53.964Z,0.96
2022-11-26T20:44:23.221Z,1.10
2022-11-26T20:46:51.510Z,1.03
2022-11-26T20:49:21.510Z,1.00
2022-11-26T20:51:49.596Z,0.87
2022-11-26T20:54:18.158Z,1.01
2022-11-26T20:56:46.444Z,1.11
2022-11-26T20:59:15.188Z,0.93
2022-11-26T21:01:43.851Z,0.71
2022-11-26T21:04:12.782Z,1.01
2022-11-26T21:06:45.512Z,1.13
2022-11-26T21:09:15.138Z,0.31
2022-11-26T21:11:43.587Z,1.19
2022-11-26T21:14:15.183Z,1.32
2022-11-26T21:16:44.346Z,1.33
2022-11-26T21:19:14.690Z,1.13
2022-11-26T21:21:44.569Z,0.47
2022-11-26T21:24:15.029Z,1.37
2022-11-26T21:26:43.488Z,1.07
2022-11-26T21:29:14.871Z,1.05
2022-11-26T21:31:43.223Z,0.82
2022-11-26T21:34:15.604Z,1.14
2022-11-26T21:36:46.336Z,2.08
2022-11-26T21:39:16.940Z,1.96
2022-11-26T21:41:45.145Z,2.08
2022-11-26T21:44:13.677Z,2.10
2022-11-26T21:46:41.996Z,1.90
2022-11-26T21:49:12.629Z,1.79
2022-11-26T21:51:43.279Z,1.81
2022-11-26T21:54:13.339Z,1.90
2022-11-26T21:56:41.692Z,2.31
2022-11-26T21:59:10.518Z,2.32
2022-11-26T22:01:39.288Z,2.03
2022-11-26T22:04:12.117Z,2.24
2022-11-26T22:06:40.512Z,2.12
2022-11-26T22:09:09.894Z,2.15
2022-11-26T22:11:41.627Z,2.26
2022-11-26T22:14:12.968Z,2.26
2022-11-26T22:16:41.434Z,2.10
2022-11-26T22:19:10.474Z,2.07
2022-11-26T22:21:40.488Z,2.33
2022-11-26T22:24:12.130Z,2.27
2022-11-26T22:26:42.192Z,2.36
2022-11-26T22:29:13.087Z,1.62
2022-11-26T22:31:41.693Z,2.23
2022-11-26T22:34:13.777Z,2.46
2022-11-26T22:36:43.441Z,2.38
2022-11-26T22:39:14.507Z,2.48
2022-11-26T22:41:46.910Z,1.89
2022-11-26T22:44:16.530Z,2.26
2022-11-26T22:46:46.042Z,2.51
2022-11-26T22:49:17.981Z,1.96
2022-11-26T22:51:47.406Z,2.29
2022-11-26T22:54:18.198Z,2.39
2022-11-26T22:56:48.113Z,2.41
2022-11-26T22:59:16.935Z,2.09
2022-11-26T23:01:45.392Z,1.96
2022-11-26T23:04:14.385Z,1.60
2022-11-26T23:06:43.053Z,1.31
2022-11-26T23:09:17.387Z,1.29
2022-11-26T23:11:47.355Z,2.02
2022-11-26T23:14:15.759Z,1.92
2022-11-26T23:16:44.720Z,2.12
2022-11-26T23:19:15.562Z,2.23
2022-11-26T23:21:45.058Z,2.26
2022-11-26T23:24:14.999Z,2.11
2022-11-26T23:26:43.940Z,2.24
2022-11-26T23:29:14.202Z,2.41
2022-11-26T23:31:44.573Z,2.36
2022-11-26T23:34:13.412Z,2.23
2022-11-26T23:36:42.071Z,2.51
2022-11-26T23:39:13.171Z,2.25
2022-11-26T23:41:41.415Z,2.54
2022-11-26T23:44:09.962Z,2.42
2022-11-26T23:46:39.526Z,2.45
2022-11-26T23:49:08.003Z,2.41
2022-11-26T23:51:36.384Z,2.40
2022-11-26T23:54:05.469Z,2.48
2022-11-26T23:56:35.768Z,2.43
2022-11-26T23:59:05.796Z,2.49
